createdAt,value
2018-03-31T00:00:37.649Z,4.20
2018-03-31T00:03:04.711Z,4.57
2018-03-31T00:05:31.741Z,3.90
2018-03-31T00:07:58.772Z,3.87
2018-03-31T00:10:25.858Z,4.10
2018-03-31T00:12:52.949Z,3.50
2018-03-31T00:15:20.106Z,4.40
2018-03-31T00:17:47.134Z,4.37
2018-03-31T00:20:14.211Z,3.70
2018-03-31T00:22:41.955Z,4.80
2018-03-31T00:25:09.039Z,5.20
2018-03-31T00:27:36.066Z,5.30
2018-03-31T00:30:03.129Z,5.33
2018-03-31T00:32:30.194Z,5.57
2018-03-31T00:34:57.313Z,5.70
2018-03-31T00:37:24.395Z,5.60
2018-03-31T00:39:51.494Z,4.70
2018-03-31T00:42:18.552Z,4.43
2018-03-31T00:44:45.739Z,4.43
2018-03-31T00:47:12.872Z,4.63
2018-03-31T00:49:39.901Z,4.67
2018-03-31T00:52:07.058Z,5.37
2018-03-31T00:54:34.125Z,4.83
2018-03-31T00:57:01.308Z,5.43
2018-03-31T00:59:29.126Z,6.00
2018-03-31T01:01:56.203Z,5.70
2018-03-31T01:04:23.264Z,5.13
2018-03-31T01:06:51.090Z,4.60
2018-03-31T01:09:18.180Z,4.47
2018-03-31T01:11:46.006Z,4.83
2018-03-31T01:14:13.086Z,5.30
2018-03-31T01:16:40.172Z,5.60
2018-03-31T01:19:07.267Z,5.87
2018-03-31T01:21:34.393Z,6.10
2018-03-31T01:24:01.445Z,5.10
2018-03-31T01:26:28.490Z,5.57
2018-03-31T01:28:55.645Z,5.57
2018-03-31T01:31:22.721Z,5.83
2018-03-31T01:33:49.758Z,5.83
2018-03-31T01:36:16.823Z,5.23
2018-03-31T01:38:44.627Z,5.77
2018-03-31T01:41:11.694Z,6.20
2018-03-31T01:43:38.766Z,5.67
2018-03-31T01:46:05.810Z,5.80
2018-03-31T01:48:32.853Z,5.03
2018-03-31T01:50:59.948Z,5.43
2018-03-31T01:53:27.146Z,5.13
2018-03-31T01:55:54.184Z,5.87
2018-03-31T01:58:21.237Z,5.13
2018-03-31T02:00:48.369Z,6.17
2018-03-31T02:03:15.492Z,5.13
2018-03-31T02:05:42.562Z,5.40
2018-03-31T02:08:09.614Z,5.43
2018-03-31T02:10:36.664Z,5.50
2018-03-31T02:13:03.733Z,6.50
2018-03-31T02:15:30.847Z,6.03
2018-03-31T02:17:57.864Z,6.50
2018-03-31T02:20:25.694Z,6.83
2018-03-31T02:22:52.734Z,5.70
2018-03-31T02:25:19.904Z,5.30
2018-03-31T02:27:47.726Z,5.30
2018-03-31T02:30:14.806Z,5.07
2018-03-31T02:32:42.041Z,5.27
2018-03-31T02:35:09.127Z,5.93
2018-03-31T02:37:36.252Z,6.77
2018-03-31T02:40:03.392Z,7.20
2018-03-31T02:42:30.527Z,6.47
2018-03-31T02:44:57.581Z,6.23
2018-03-31T02:47:24.630Z,6.27
2018-03-31T02:49:51.721Z,5.80
2018-03-31T02:52:18.750Z,6.07
2018-03-31T02:54:45.866Z,6.27
2018-03-31T02:57:12.894Z,7.07
2018-03-31T02:59:39.976Z,8.07
2018-03-31T03:02:07.048Z,7.67
2018-03-31T03:04:34.899Z,7.80
2018-03-31T03:07:01.950Z,7.10
2018-03-31T03:09:28.964Z,7.90
2018-03-31T03:11:56.042Z,7.40
2018-03-31T03:14:23.903Z,7.03
2018-03-31T03:16:50.961Z,7.27
2018-03-31T03:19:18.772Z,7.30
2018-03-31T03:21:45.839Z,7.17
2018-03-31T03:24:13.087Z,7.60
2018-03-31T03:26:40.216Z,7.20
2018-03-31T03:29:07.388Z,7.87
2018-03-31T03:31:34.446Z,7.73
2018-03-31T03:34:01.541Z,7.70
2018-03-31T03:36:28.581Z,7.93
2018-03-31T03:38:56.450Z,8.17
2018-03-31T03:41:24.334Z,8.67
2018-03-31T03:43:51.456Z,8.40
2018-03-31T03:46:19.279Z,8.63
2018-03-31T03:48:46.418Z,8.00
2018-03-31T03:51:13.495Z,7.57
2018-03-31T03:53:40.521Z,8.03
2018-03-31T03:56:08.350Z,7.40
2018-03-31T03:58:35.438Z,5.97
2018-03-31T04:01:02.462Z,6.57
2018-03-31T04:03:29.529Z,7.40
2018-03-31T04:05:56.625Z,6.60
2018-03-31T04:08:23.716Z,7.63
2018-03-31T04:10:50.796Z,7.47
2018-03-31T04:13:17.935Z,7.10
2018-03-31T04:15:46.534Z,7.27
2018-03-31T04:18:14.333Z,6.47
2018-03-31T04:20:41.514Z,7.00
2018-03-31T04:23:08.594Z,6.80
2018-03-31T04:25:35.664Z,6.93
2018-03-31T04:28:03.478Z,7.93
2018-03-31T04:30:30.615Z,7.67
2018-03-31T04:32:57.661Z,6.23
2018-03-31T04:35:24.695Z,6.73
2018-03-31T04:37:51.762Z,7.10
2018-03-31T04:40:18.803Z,6.50
2018-03-31T04:42:45.929Z,7.07
2018-03-31T04:45:13.047Z,7.07
2018-03-31T04:47:40.082Z,7.40
2018-03-31T04:50:07.130Z,7.03
2018-03-31T04:52:34.177Z,7.53
2018-03-31T04:55:01.337Z,7.37
2018-03-31T04:57:28.398Z,7.57
2018-03-31T04:59:55.450Z,8.20
2018-03-31T05:02:22.509Z,8.63
2018-03-31T05:04:49.520Z,8.47
2018-03-31T05:07:16.560Z,7.90
2018-03-31T05:09:43.576Z,8.37
2018-03-31T05:12:10.649Z,8.03
2018-03-31T05:14:37.703Z,7.60
2018-03-31T05:17:04.841Z,7.53
2018-03-31T05:19:31.922Z,7.20
2018-03-31T05:21:59.764Z,7.10
2018-03-31T05:24:26.779Z,7.60
2018-03-31T05:26:53.870Z,7.20
2018-03-31T05:29:21.826Z,6.87
2018-03-31T05:31:48.866Z,6.57
2018-03-31T05:34:15.975Z,6.87
2018-03-31T05:36:43.022Z,7.23
2018-03-31T05:39:10.161Z,6.83
2018-03-31T05:41:37.218Z,8.40
2018-03-31T05:44:04.242Z,7.17
2018-03-31T05:46:31.280Z,7.90
2018-03-31T05:48:58.343Z,7.47
2018-03-31T05:51:25.383Z,7.23
2018-03-31T05:53:52.530Z,7.33
2018-03-31T05:56:19.726Z,7.43
2018-03-31T05:58:46.906Z,6.93
2018-03-31T06:01:13.919Z,7.23
2018-03-31T06:03:40.963Z,6.70
2018-03-31T06:06:07.991Z,7.63
2018-03-31T06:08:35.089Z,6.77
2018-03-31T06:11:02.086Z,6.10
2018-03-31T06:13:29.109Z,6.27
2018-03-31T06:15:56.902Z,7.00
2018-03-31T06:18:24.722Z,6.33
2018-03-31T06:20:51.762Z,7.07
2018-03-31T06:23:18.754Z,6.60
2018-03-31T06:25:45.738Z,6.50
2018-03-31T06:28:12.745Z,6.40
2018-03-31T06:30:39.752Z,6.27
2018-03-31T06:33:06.754Z,6.77
2018-03-31T06:35:33.749Z,6.53
2018-03-31T06:38:00.742Z,6.73
2018-03-31T06:40:27.733Z,7.23
2018-03-31T06:42:54.712Z,6.70
2018-03-31T06:45:21.670Z,6.90
2018-03-31T06:47:48.659Z,6.77
2018-03-31T06:50:15.630Z,6.80
2018-03-31T06:52:43.424Z,7.10
2018-03-31T06:55:10.432Z,6.70
2018-03-31T06:57:37.482Z,7.10
2018-03-31T07:00:04.469Z,6.57
2018-03-31T07:02:31.448Z,6.70
2018-03-31T07:04:58.443Z,6.43
2018-03-31T07:07:25.424Z,6.47
2018-03-31T07:09:54.816Z,7.07
2018-03-31T07:12:22.083Z,6.63
2018-03-31T07:14:49.154Z,6.23
2018-03-31T07:17:16.382Z,6.27
2018-03-31T07:19:43.535Z,5.87
2018-03-31T07:22:10.624Z,5.90
2018-03-31T07:24:57.538Z,6.27
2018-03-31T07:27:25.408Z,6.37
2018-03-31T07:29:53.256Z,6.70
2018-03-31T07:32:21.100Z,5.87
2018-03-31T07:34:48.206Z,5.83
2018-03-31T07:37:15.310Z,6.07
2018-03-31T07:39:42.406Z,5.67
2018-03-31T07:42:09.822Z,5.70
2018-03-31T07:44:37.692Z,5.93
2018-03-31T07:47:05.651Z,5.40
2018-03-31T07:49:33.604Z,5.33
2018-03-31T07:52:01.465Z,4.87
2018-03-31T07:54:32.290Z,6.10
2018-03-31T07:56:59.365Z,5.27
2018-03-31T07:59:26.388Z,5.30
2018-03-31T08:01:53.467Z,5.57
2018-03-31T08:04:20.812Z,5.30
2018-03-31T08:06:48.786Z,5.10
2018-03-31T08:09:15.885Z,4.50
2018-03-31T08:11:42.992Z,5.10
2018-03-31T08:14:11.010Z,4.67
2018-03-31T08:16:38.138Z,4.67
2018-03-31T08:19:05.210Z,4.47
2018-03-31T08:21:32.308Z,4.97
2018-03-31T08:24:00.196Z,4.90
2018-03-31T08:26:31.200Z,4.77
2018-03-31T08:28:58.503Z,4.23
2018-03-31T08:31:25.552Z,3.50
2018-03-31T08:33:52.682Z,4.30
2018-03-31T08:36:19.810Z,4.30
2018-03-31T08:38:47.931Z,3.83
2018-03-31T08:41:15.023Z,3.50
2018-03-31T08:43:42.056Z,4.60
2018-03-31T08:46:09.161Z,6.07
2018-03-31T08:48:36.260Z,10.03
2018-03-31T08:51:03.541Z,3.17
2018-03-31T08:53:31.617Z,3.60
2018-03-31T08:55:58.765Z,3.93
2018-03-31T08:58:25.861Z,3.87
2018-03-31T09:00:53.199Z,3.87
2018-03-31T09:03:21.297Z,3.47
2018-03-31T09:05:49.339Z,4.00
2018-03-31T09:08:16.626Z,4.00
2018-03-31T09:10:43.743Z,4.73
2018-03-31T09:13:10.871Z,5.17
2018-03-31T09:15:38.422Z,5.40
2018-03-31T09:18:06.368Z,5.33
2018-03-31T09:23:06.786Z,4.90
2018-03-31T09:25:34.243Z,4.60
2018-03-31T09:28:01.676Z,4.57
2018-03-31T09:30:30.662Z,4.27
2018-03-31T09:33:03.136Z,4.30
2018-03-31T09:35:31.281Z,3.40
2018-03-31T09:38:00.267Z,3.27
2018-03-31T09:40:27.455Z,3.17
2018-03-31T09:42:54.702Z,3.00
2018-03-31T09:45:21.961Z,3.23
2018-03-31T09:47:49.102Z,1.77
2018-03-31T09:50:16.273Z,3.20
2018-03-31T09:52:44.391Z,2.45
2018-03-31T09:55:13.534Z,2.62
2018-03-31T09:57:40.687Z,2.70
2018-03-31T10:00:08.712Z,2.42
2018-03-31T10:02:36.712Z,2.12
2018-03-31T10:05:03.905Z,2.00
2018-03-31T10:07:33.446Z,1.90
2018-03-31T10:10:01.243Z,2.25
2018-03-31T10:12:33.848Z,1.95
2018-03-31T10:15:01.029Z,2.25
2018-03-31T10:17:28.329Z,1.77
2018-03-31T10:19:56.808Z,1.60
2018-03-31T10:22:24.205Z,2.03
2018-03-31T10:24:51.372Z,1.58
2018-03-31T10:27:19.701Z,1.50
2018-03-31T10:29:46.835Z,1.73
2018-03-31T10:32:14.060Z,1.50
2018-03-31T10:34:41.433Z,1.75
2018-03-31T10:37:10.248Z,1.40
2018-03-31T10:39:37.460Z,1.58
2018-03-31T10:42:04.759Z,1.62
2018-03-31T10:47:04.957Z,1.55
2018-03-31T10:49:33.014Z,1.65
2018-03-31T10:52:00.222Z,1.80
2018-03-31T10:54:27.768Z,1.75
2018-03-31T10:56:55.204Z,1.62
2018-03-31T10:59:23.468Z,1.60
2018-03-31T11:01:51.297Z,1.45
2018-03-31T11:04:19.015Z,1.70
2018-03-31T11:06:47.287Z,1.50
2018-03-31T11:09:14.493Z,2.22
2018-03-31T11:14:15.803Z,1.77
2018-03-31T11:16:44.703Z,1.33
2018-03-31T11:19:11.978Z,1.73
2018-03-31T11:21:39.391Z,1.45
2018-03-31T11:24:06.563Z,1.80
2018-03-31T11:26:36.587Z,1.92
2018-03-31T11:29:04.680Z,1.95
2018-03-31T11:31:33.776Z,2.00
2018-03-31T11:34:00.992Z,2.03
2018-03-31T11:36:28.177Z,1.83
2018-03-31T11:38:55.597Z,3.07
2018-03-31T11:41:26.749Z,2.23
2018-03-31T11:43:54.098Z,1.77
2018-03-31T11:46:23.672Z,2.07
2018-03-31T11:49:02.110Z,1.70
2018-03-31T11:51:29.243Z,2.17
2018-03-31T11:53:56.469Z,2.17
2018-03-31T11:56:23.712Z,2.13
2018-03-31T11:58:50.990Z,3.10
2018-03-31T12:01:18.353Z,2.20
2018-03-31T12:03:45.519Z,1.83
2018-03-31T12:06:12.800Z,1.97
2018-03-31T12:08:41.435Z,1.62
2018-03-31T12:11:08.695Z,1.70
2018-03-31T12:13:35.940Z,1.50
2018-03-31T12:16:03.961Z,1.80
2018-03-31T12:18:31.820Z,1.43
2018-03-31T12:20:59.145Z,1.53
2018-03-31T12:23:28.137Z,1.40
2018-03-31T12:25:55.494Z,1.30
2018-03-31T12:28:30.356Z,1.37
2018-03-31T12:30:59.078Z,1.20
2018-03-31T12:33:26.694Z,1.47
2018-03-31T12:35:53.941Z,1.50
2018-03-31T12:38:21.350Z,1.27
2018-03-31T12:40:49.615Z,1.53
2018-03-31T12:43:17.042Z,1.58
2018-03-31T12:45:44.557Z,1.10
2018-03-31T12:48:11.754Z,1.12
2018-03-31T12:50:39.675Z,1.43
2018-03-31T12:53:06.835Z,1.17
2018-03-31T12:55:33.932Z,1.20
2018-03-31T12:58:01.070Z,1.27
2018-03-31T13:00:28.894Z,1.40
2018-03-31T13:02:56.014Z,1.27
2018-03-31T13:05:23.189Z,1.30
2018-03-31T13:07:50.389Z,1.50
2018-03-31T13:10:17.615Z,1.10
2018-03-31T13:12:44.717Z,1.53
2018-03-31T13:15:11.789Z,1.20
2018-03-31T13:17:38.922Z,1.10
2018-03-31T13:20:06.065Z,0.90
2018-03-31T13:22:33.213Z,0.90
2018-03-31T13:25:00.566Z,0.97
2018-03-31T13:27:28.508Z,1.27
2018-03-31T13:29:55.635Z,1.30
2018-03-31T13:32:22.725Z,1.07
2018-03-31T13:34:56.640Z,0.93
2018-03-31T13:37:24.605Z,0.90
2018-03-31T13:39:51.981Z,1.10
2018-03-31T13:42:19.432Z,1.10
2018-03-31T13:44:46.656Z,1.40
2018-03-31T13:47:14.025Z,1.77
2018-03-31T13:49:41.231Z,1.90
2018-03-31T13:52:08.355Z,2.00
2018-03-31T13:57:28.540Z,1.80
2018-03-31T13:59:55.707Z,1.73
2018-03-31T14:02:23.736Z,2.00
2018-03-31T14:04:51.989Z,1.70
2018-03-31T14:07:19.365Z,2.07
2018-03-31T14:09:46.611Z,2.40
2018-03-31T14:12:15.676Z,1.70
2018-03-31T14:14:43.631Z,1.87
2018-03-31T14:17:11.478Z,1.80
2018-03-31T14:19:39.984Z,2.57
2018-03-31T14:22:07.230Z,2.70
2018-03-31T14:24:35.202Z,2.37
2018-03-31T14:27:02.437Z,2.30
2018-03-31T14:29:29.690Z,2.20
2018-03-31T14:31:56.841Z,2.43
2018-03-31T14:34:23.883Z,2.20
2018-03-31T14:36:51.004Z,5.20
2018-03-31T14:39:18.177Z,3.80
2018-03-31T14:41:45.380Z,2.63
2018-03-31T14:44:13.954Z,2.60
2018-03-31T14:46:41.091Z,2.50
2018-03-31T14:49:08.984Z,2.33
2018-03-31T14:51:36.129Z,2.40
2018-03-31T14:54:03.779Z,1.90
2018-03-31T14:56:31.439Z,2.13
2018-03-31T14:59:00.154Z,2.17
2018-03-31T15:01:27.705Z,1.73
2018-03-31T15:03:56.296Z,2.30
2018-03-31T15:06:23.705Z,2.27
2018-03-31T15:08:50.882Z,2.00
2018-03-31T15:11:18.168Z,1.87
2018-03-31T15:13:45.413Z,2.43
2018-03-31T15:16:16.000Z,1.83
2018-03-31T15:18:44.057Z,2.13
2018-03-31T15:21:11.677Z,1.87
2018-03-31T15:23:39.639Z,1.83
2018-03-31T15:26:07.102Z,2.00
2018-03-31T15:28:34.435Z,3.57
2018-03-31T15:31:03.369Z,2.30
2018-03-31T15:33:37.244Z,1.23
2018-03-31T15:36:05.480Z,1.60
2018-03-31T15:38:33.579Z,1.50
2018-03-31T15:41:00.707Z,1.50
2018-03-31T15:43:28.527Z,1.77
2018-03-31T15:45:55.710Z,1.87
2018-03-31T15:48:23.975Z,1.20
2018-03-31T15:50:51.041Z,1.30
2018-03-31T15:53:18.376Z,0.93
2018-03-31T15:55:45.619Z,1.30
2018-03-31T15:58:13.924Z,1.93
2018-03-31T16:00:41.327Z,2.20
2018-03-31T16:03:08.508Z,2.50
2018-03-31T16:05:36.609Z,3.40
2018-03-31T16:08:15.194Z,2.80
2018-03-31T16:10:42.473Z,3.03
2018-03-31T16:13:10.004Z,2.30
2018-03-31T16:15:37.805Z,2.30
2018-03-31T16:18:04.943Z,2.57
2018-03-31T16:20:33.050Z,2.13
2018-03-31T16:23:00.095Z,1.70
2018-03-31T16:25:33.448Z,2.70
2018-03-31T16:28:00.510Z,2.40
2018-03-31T16:30:28.393Z,2.13
2018-03-31T16:32:55.440Z,2.00
2018-03-31T16:35:23.419Z,2.53
2018-03-31T16:37:50.506Z,2.57
2018-03-31T16:40:17.997Z,2.37
2018-03-31T16:42:45.158Z,2.10
2018-03-31T16:45:12.283Z,2.30
2018-03-31T16:47:39.394Z,2.03
2018-03-31T16:50:06.568Z,2.00
2018-03-31T16:52:33.657Z,1.60
2018-03-31T16:55:01.024Z,2.73
2018-03-31T16:57:28.200Z,1.50
2018-03-31T16:59:55.431Z,1.70
2018-03-31T17:02:22.548Z,1.70
2018-03-31T17:04:51.153Z,2.13
2018-03-31T17:07:18.273Z,1.80
2018-03-31T17:09:46.126Z,2.10
2018-03-31T17:12:13.237Z,2.13
2018-03-31T17:14:48.294Z,1.90
2018-03-31T17:17:15.511Z,2.03
2018-03-31T17:19:42.616Z,2.20
2018-03-31T17:22:09.783Z,2.10
2018-03-31T17:24:38.828Z,1.70
2018-03-31T17:27:06.056Z,2.20
2018-03-31T17:29:33.904Z,1.87
2018-03-31T17:32:01.154Z,1.80
2018-03-31T17:34:28.290Z,1.60
2018-03-31T17:36:55.485Z,1.80
2018-03-31T17:39:45.057Z,1.87
2018-03-31T17:42:12.434Z,1.50
2018-03-31T17:44:40.468Z,2.83
2018-03-31T17:47:08.390Z,2.10
2018-03-31T17:49:36.045Z,2.00
2018-03-31T17:52:08.962Z,2.13
2018-03-31T17:54:36.060Z,2.17
2018-03-31T17:57:07.888Z,2.50
2018-03-31T17:59:41.592Z,2.23
2018-03-31T18:02:08.898Z,2.83
2018-03-31T18:04:38.281Z,2.27
2018-03-31T18:07:06.650Z,2.27
2018-03-31T18:09:34.436Z,2.53
2018-03-31T18:12:02.262Z,2.10
2018-03-31T18:14:29.633Z,2.77
2018-03-31T18:16:57.236Z,2.90
2018-03-31T18:19:25.693Z,2.60
2018-03-31T18:21:52.988Z,3.10
2018-03-31T18:24:20.550Z,2.90
2018-03-31T18:26:47.720Z,3.03
2018-03-31T18:29:14.835Z,3.43
2018-03-31T18:31:42.715Z,3.43
2018-03-31T18:34:09.739Z,2.90
2018-03-31T18:36:36.888Z,3.03
2018-03-31T18:39:04.087Z,3.00
2018-03-31T18:41:31.193Z,3.00
2018-03-31T18:43:59.014Z,4.33
2018-03-31T18:46:26.144Z,15.23
2018-03-31T18:48:54.057Z,15.53
2018-03-31T18:51:21.366Z,15.73
2018-03-31T18:53:48.430Z,19.37
2018-03-31T18:56:15.590Z,15.70
2018-03-31T18:58:42.649Z,14.53
2018-03-31T19:01:09.734Z,11.73
2018-03-31T19:03:37.677Z,5.00
2018-03-31T19:06:05.497Z,5.13
2018-03-31T19:08:32.556Z,6.30
2018-03-31T19:10:59.651Z,5.07
2018-03-31T19:13:26.724Z,4.10
2018-03-31T19:15:53.797Z,4.37
2018-03-31T19:18:20.874Z,4.10
2018-03-31T19:20:48.745Z,3.43
2018-03-31T19:23:15.827Z,3.53
2018-03-31T19:25:42.889Z,3.27
2018-03-31T19:28:09.898Z,3.90
2018-03-31T19:30:42.740Z,4.27
2018-03-31T19:33:10.053Z,7.20
2018-03-31T19:35:43.560Z,8.30
2018-03-31T19:38:10.548Z,8.07
2018-03-31T19:40:37.542Z,9.60
2018-03-31T19:43:05.296Z,9.57
2018-03-31T19:45:33.039Z,8.50
2018-03-31T19:48:00.008Z,5.60
2018-03-31T19:50:27.761Z,4.30
2018-03-31T19:52:54.753Z,3.40
2018-03-31T19:55:21.757Z,2.10
2018-03-31T19:57:49.502Z,2.00
2018-03-31T20:00:16.464Z,2.00
2018-03-31T20:02:44.206Z,1.87
2018-03-31T20:05:11.166Z,2.10
2018-03-31T20:07:38.945Z,3.30
2018-03-31T20:10:06.677Z,2.47
2018-03-31T20:12:33.638Z,1.77
2018-03-31T20:15:00.634Z,2.00
2018-03-31T20:17:28.389Z,2.10
2018-03-31T20:19:55.373Z,1.80
2018-03-31T20:22:22.357Z,1.80
2018-03-31T20:24:49.344Z,2.00
2018-03-31T20:27:16.310Z,2.10
2018-03-31T20:29:43.322Z,2.20
2018-03-31T20:32:10.300Z,2.10
2018-03-31T20:34:37.305Z,2.33
2018-03-31T20:37:04.325Z,2.00
2018-03-31T20:39:32.077Z,2.10
2018-03-31T20:41:59.845Z,2.20
2018-03-31T20:44:27.608Z,2.30
2018-03-31T20:46:55.334Z,1.70
2018-03-31T20:49:22.320Z,1.97
2018-03-31T20:51:49.302Z,1.60
2018-03-31T20:54:16.292Z,1.47
2018-03-31T20:56:43.292Z,1.53
2018-03-31T20:59:10.241Z,2.00
2018-03-31T21:01:37.218Z,1.83
2018-03-31T21:04:04.187Z,1.80
2018-03-31T21:06:31.916Z,2.30
2018-03-31T21:08:58.915Z,1.57
2018-03-31T21:11:26.640Z,1.70
2018-03-31T21:13:53.640Z,1.70
2018-03-31T21:16:20.681Z,2.07
2018-03-31T21:18:47.680Z,2.30
2018-03-31T21:21:14.664Z,1.70
2018-03-31T21:23:41.656Z,1.60
2018-03-31T21:26:08.651Z,1.50
2018-03-31T21:28:36.379Z,1.73
2018-03-31T21:31:03.363Z,1.73
2018-03-31T21:33:30.357Z,1.70
2018-03-31T21:35:57.367Z,2.00
2018-03-31T21:38:24.358Z,1.70
2018-03-31T21:40:51.319Z,2.07
2018-03-31T21:43:19.078Z,1.90
2018-03-31T21:45:46.034Z,2.40
2018-03-31T21:48:13.793Z,2.07
2018-03-31T21:50:40.753Z,2.40
2018-03-31T21:53:08.529Z,2.60
2018-03-31T21:55:35.507Z,2.70
2018-03-31T21:58:02.465Z,2.67
2018-03-31T22:00:29.453Z,2.50
2018-03-31T22:02:57.206Z,2.83
2018-03-31T22:05:31.936Z,2.20
2018-03-31T22:07:59.707Z,2.40
2018-03-31T22:10:27.432Z,2.27
2018-03-31T22:13:04.224Z,2.27
2018-03-31T22:15:36.936Z,1.83
2018-03-31T22:18:03.938Z,2.33
2018-03-31T22:20:30.945Z,2.00
2018-03-31T22:22:57.898Z,1.83
2018-03-31T22:25:24.869Z,1.60
2018-03-31T22:27:52.764Z,1.83
2018-03-31T22:30:20.502Z,1.90
2018-03-31T22:32:47.487Z,2.17
2018-03-31T22:35:15.237Z,1.80
2018-03-31T22:37:43.010Z,2.10
2018-03-31T22:40:10.009Z,2.20
2018-03-31T22:42:37.078Z,1.90
2018-03-31T22:45:04.207Z,2.07
2018-03-31T22:47:32.007Z,2.13
2018-03-31T22:49:59.005Z,2.17
2018-03-31T22:52:25.992Z,2.13
2018-03-31T22:54:53.116Z,2.60
2018-03-31T22:57:20.234Z,1.97
2018-03-31T22:59:47.296Z,2.27
2018-03-31T23:02:14.349Z,2.50
2018-03-31T23:04:41.474Z,2.50
2018-03-31T23:07:08.502Z,2.50
2018-03-31T23:09:35.554Z,2.00
2018-03-31T23:12:02.592Z,2.07
2018-03-31T23:14:29.613Z,2.03
2018-03-31T23:16:57.499Z,2.00
2018-03-31T23:19:25.328Z,2.10
2018-03-31T23:21:52.431Z,2.57
2018-03-31T23:24:19.486Z,2.63
2018-03-31T23:26:46.519Z,2.17
2018-03-31T23:29:13.567Z,2.23
2018-03-31T23:31:40.656Z,1.80
2018-03-31T23:34:07.770Z,2.40
2018-03-31T23:36:34.845Z,2.30
2018-03-31T23:39:01.885Z,2.53
2018-03-31T23:41:29.693Z,2.37
2018-03-31T23:43:56.761Z,2.23
2018-03-31T23:46:23.896Z,2.57
2018-03-31T23:48:51.759Z,2.00
2018-03-31T23:51:18.821Z,2.40
2018-03-31T23:53:45.865Z,2.70
2018-03-31T23:56:13.658Z,2.90
2018-03-31T23:58:40.660Z,2.53
